CheckWX is a tool to help pilots better visualize weather data.  It is not intended as a substitute for an official pre-flight weather briefing.

16:21:47 UTC

82V METAR
Pine Bluffs Municipal Airport
Pine Bluffs, Wyoming, USA
Current

27 mins ago

K82V 201555Z AUTO 27007KT 10SM SCT048 SCT060 OVC080 M08/M14 A2958 RMK AO2
Observed
Feb-20 @ 15:55 UTC
Wind
  • 270° at 7 KTS
Visibility
16,093 meters
Flight Rules
VFR
Cloud Levels
  • Scattered at 4,800' AGL
  • Scattered at 6,000' AGL
  • Overcast at 8,000' AGL
Temperature
-8°C / 18°F
Dewpoint
-14°C / 7°F
Humidity
62%
Altimeter
29.58" Hg
Pressure
1001.72 hPa
Previous

47 mins ago

K82V 201535Z AUTO 25008KT 10SM SCT048 SCT060 BKN070 M10/M15 A2958 RMK AO2
Observed
Feb-20 @ 15:35 UTC
Wind
  • 250° at 8 KTS
Visibility
16,093 meters
Flight Rules
VFR
Cloud Levels
  • Scattered at 4,800' AGL
  • Scattered at 6,000' AGL
  • Broken at 7,000' AGL
Temperature
-10°C / 14°F
Dewpoint
-15°C / 5°F
Humidity
67%
Altimeter
29.58" Hg
Pressure
1001.72 hPa
Previous

1 hour ago

K82V 201515Z AUTO 25005KT 10SM BKN060 BKN070 M12/M16 A2957 RMK AO2
Observed
Feb-20 @ 15:15 UTC
Wind
  • 250° at 5 KTS
Visibility
16,093 meters
Flight Rules
VFR
Cloud Levels
  • Broken at 6,000' AGL
  • Broken at 7,000' AGL
Temperature
-12°C / 10°F
Dewpoint
-16°C / 3°F
Humidity
72%
Altimeter
29.57" Hg
Pressure
1001.32 hPa